Time;durP1;ratioP1;P1;durP2;ratioP2;P2;SDS_P1;SDS_P2;PMS_P1;PMS_P2;Temp;Humidity;BMP_temperature;BMP_pressure;BME280_temperature;BME280_humidity;BME280_pressure;Samples;Min_cycle;Max_cycle;Signal;HPM_P1;HPM_P2
2022/05/21 00:00:22;;;;;;;;;;;14.40;99.90;;;;;;5076702;28;20372;-77
2022/05/21 00:02:49;;;;;;;;;;;14.60;99.90;;;;;;5058677;28;19909;-75
2022/05/21 00:05:15;;;;;;;;;;;14.60;99.90;;;;;;5076918;28;19940;-76
2022/05/21 00:07:42;;;;;;;;;;;14.60;99.90;;;;;;5076574;28;19908;-76
2022/05/21 00:10:07;;;;;;;;;;;14.80;99.90;;;;;;5076799;28;20408;-76
2022/05/21 00:12:33;;;;;;;;;;;14.60;99.90;;;;;;5058470;28;19909;-75
2022/05/21 00:14:59;;;;;;;;;;;14.70;99.90;;;;;;5076689;28;19909;-75
2022/05/21 00:17:25;;;;;;;;;;;14.60;99.90;;;;;;5058406;28;19909;-75
2022/05/21 00:19:50;;;;;;;;;;;14.50;99.90;;;;;;5076614;28;19915;-75
2022/05/21 00:22:16;;;;;;;;;;;14.20;99.90;;;;;;5076308;28;19931;-77
2022/05/21 00:24:41;;;;;;;;;;;14.30;99.90;;;;;;5076256;28;19963;-75
2022/05/21 00:27:07;;;;;;;;;;;14.20;99.90;;;;;;5076415;28;19908;-75
2022/05/21 00:29:33;;;;;;;;;;;14.30;99.90;;;;;;5076360;28;19958;-76
2022/05/21 00:31:59;;;;;;;;;;;14.40;99.90;;;;;;5076270;28;19909;-76
2022/05/21 00:34:25;;;;;;;;;;;14.40;99.90;;;;;;5076088;28;19909;-75
2022/05/21 00:36:50;;;;;;;;;;;14.20;99.90;;;;;;5076085;28;19982;-76
2022/05/21 00:39:16;;;;;;;;;;;14.30;99.90;;;;;;5076199;28;20372;-75
2022/05/21 00:41:43;;;;;;;;;;;14.10;99.90;;;;;;5075988;28;20292;-76
2022/05/21 00:44:08;;;;;;;;;;;14.10;99.90;;;;;;5075871;28;20011;-76
2022/05/21 00:46:38;;;;;;;;;;;14.10;99.90;;;;;;5075871;28;19948;-75
2022/05/21 00:49:11;;;;;;;;;;;14.00;99.90;;;;;;5076118;28;19955;-76
2022/05/21 00:51:46;;;;;;;;;;;14.10;99.90;;;;;;5075336;28;19925;-74
2022/05/21 00:54:12;;;;;;;;;;;14.20;99.90;;;;;;5075805;28;19913;-76
2022/05/21 00:56:43;;;;;;;;;;;14.10;99.90;;;;;;5057678;28;20316;-75
2022/05/21 01:01:54;;;;;;;;;;;14.00;99.90;;;;;;5075535;28;20360;-77
2022/05/21 01:04:20;;;;;;;;;;;13.80;99.90;;;;;;5075549;28;20388;-76
2022/05/21 01:06:45;;;;;;;;;;;13.70;99.90;;;;;;5075492;28;19908;-76
2022/05/21 01:09:11;;;;;;;;;;;13.50;99.90;;;;;;5075906;28;19908;-76
2022/05/21 01:11:37;;;;;;;;;;;13.30;99.90;;;;;;5075349;28;19908;-78
2022/05/21 01:14:04;;;;;;;;;;;13.20;99.90;;;;;;5075495;28;19913;-75
2022/05/21 01:16:31;;;;;;;;;;;12.80;99.90;;;;;;5057314;28;19909;-74
2022/05/21 01:18:56;;;;;;;;;;;12.50;99.90;;;;;;5075272;28;20288;-76
2022/05/21 01:21:23;;;;;;;;;;;12.80;99.90;;;;;;5075412;28;19919;-75
2022/05/21 01:23:49;;;;;;;;;;;13.20;99.90;;;;;;5075113;28;20388;-75
2022/05/21 01:26:18;;;;;;;;;;;13.50;99.90;;;;;;5075117;28;19936;-75
2022/05/21 01:28:44;;;;;;;;;;;13.60;99.90;;;;;;5057068;28;19909;-77
2022/05/21 01:31:10;;;;;;;;;;;13.80;99.90;;;;;;5075275;28;20018;-76
2022/05/21 01:33:38;;;;;;;;;;;13.60;99.90;;;;;;5075318;28;19909;-75
2022/05/21 01:36:06;;;;;;;;;;;13.80;99.90;;;;;;5074831;28;19935;-78
2022/05/21 01:38:31;;;;;;;;;;;13.80;99.90;;;;;;5074926;28;19909;-76
2022/05/21 01:40:58;;;;;;;;;;;13.50;99.90;;;;;;5074878;28;19953;-77
2022/05/21 01:46:09;;;;;;;;;;;13.70;99.90;;;;;;5074461;28;19915;-76
2022/05/21 01:48:34;;;;;;;;;;;13.80;99.90;;;;;;5074643;28;19916;-75
2022/05/21 01:51:00;;;;;;;;;;;13.70;99.90;;;;;;5056671;28;19909;-77
2022/05/21 01:53:26;;;;;;;;;;;13.60;99.90;;;;;;5074737;28;19999;-77
2022/05/21 01:55:53;;;;;;;;;;;13.60;99.90;;;;;;5074670;28;20276;-77
2022/05/21 01:58:19;;;;;;;;;;;13.60;99.90;;;;;;5074440;28;19908;-75
2022/05/21 02:00:44;;;;;;;;;;;13.70;99.90;;;;;;5074436;28;20296;-75
2022/05/21 02:03:11;;;;;;;;;;;13.50;99.90;;;;;;5074252;28;19916;-75
2022/05/21 02:05:37;;;;;;;;;;;13.40;99.90;;;;;;5074301;28;20337;-77
2022/05/21 02:08:03;;;;;;;;;;;13.10;99.90;;;;;;5074424;28;19948;-75
2022/05/21 02:10:29;;;;;;;;;;;12.70;99.90;;;;;;5074219;28;19955;-75
2022/05/21 02:12:54;;;;;;;;;;;12.50;99.90;;;;;;5074207;28;19960;-78
2022/05/21 02:15:20;;;;;;;;;;;12.70;99.90;;;;;;5074125;28;19908;-75
2022/05/21 02:17:45;;;;;;;;;;;12.90;99.90;;;;;;5074532;28;19908;-76
2022/05/21 02:20:11;;;;;;;;;;;12.80;99.90;;;;;;5074067;28;19908;-75
2022/05/21 02:22:37;;;;;;;;;;;13.00;99.90;;;;;;5074025;28;20395;-75
2022/05/21 02:25:03;;;;;;;;;;;13.00;99.90;;;;;;5074076;28;19916;-78
2022/05/21 02:27:29;;;;;;;;;;;13.00;99.90;;;;;;5073995;28;19916;-76
2022/05/21 02:29:54;;;;;;;;;;;12.90;99.90;;;;;;5073994;28;20288;-77
2022/05/21 02:32:20;;;;;;;;;;;13.10;99.90;;;;;;5074212;28;19921;-77
2022/05/21 02:34:46;;;;;;;;;;;13.00;99.90;;;;;;5073949;28;19916;-76
2022/05/21 02:39:56;;;;;;;;;;;12.90;99.90;;;;;;5073990;28;20399;-74
2022/05/21 02:45:06;;;;;;;;;;;12.60;99.90;;;;;;5073418;28;19920;-76
2022/05/21 02:47:31;;;;;;;;;;;12.50;99.90;;;;;;5074141;28;19908;-77
2022/05/21 02:49:57;;;;;;;;;;;12.60;99.90;;;;;;5073699;28;19916;-77
2022/05/21 02:52:22;;;;;;;;;;;12.90;99.90;;;;;;5073729;28;19908;-77
2022/05/21 02:54:48;;;;;;;;;;;12.90;99.90;;;;;;5073655;28;20284;-75
2022/05/21 02:57:15;;;;;;;;;;;12.80;99.90;;;;;;5073611;28;20393;-77
2022/05/21 02:59:40;;;;;;;;;;;12.20;99.90;;;;;;5073854;28;19916;-76
2022/05/21 03:02:06;;;;;;;;;;;12.20;99.90;;;;;;5073547;28;19909;-76
2022/05/21 03:04:32;;;;;;;;;;;12.40;99.90;;;;;;5073447;28;19924;-75
2022/05/21 03:06:58;;;;;;;;;;;12.60;99.90;;;;;;5073548;28;20385;-76
2022/05/21 03:12:08;;;;;;;;;;;12.60;99.90;;;;;;5073827;28;19999;-77
2022/05/21 03:14:34;;;;;;;;;;;12.60;99.90;;;;;;5076409;28;19909;-75
2022/05/21 03:16:59;;;;;;;;;;;12.50;99.90;;;;;;5077589;28;20387;-76
2022/05/21 03:19:26;;;;;;;;;;;12.60;99.90;;;;;;5077550;28;19983;-74
2022/05/21 03:21:51;;;;;;;;;;;12.40;99.90;;;;;;5077534;28;20012;-74
2022/05/21 03:24:17;;;;;;;;;;;12.40;99.90;;;;;;5059382;28;20402;-76
2022/05/21 03:26:42;;;;;;;;;;;12.20;99.90;;;;;;5077437;28;20411;-75
2022/05/21 03:29:08;;;;;;;;;;;12.20;99.90;;;;;;5077353;28;19908;-76
2022/05/21 03:31:33;;;;;;;;;;;12.50;99.90;;;;;;5059315;28;20311;-76
2022/05/21 03:33:59;;;;;;;;;;;12.40;99.90;;;;;;5077276;28;19908;-75
2022/05/21 03:36:24;;;;;;;;;;;12.30;99.90;;;;;;5059051;28;20452;-76
2022/05/21 03:38:50;;;;;;;;;;;12.30;99.90;;;;;;5077143;28;19915;-76
2022/05/21 03:41:16;;;;;;;;;;;12.40;99.90;;;;;;5077273;28;19908;-75
2022/05/21 03:43:44;;;;;;;;;;;12.20;99.90;;;;;;5077138;28;19969;-76
2022/05/21 03:46:09;;;;;;;;;;;12.00;99.90;;;;;;5077078;28;19915;-75
2022/05/21 03:48:35;;;;;;;;;;;12.00;99.90;;;;;;5059003;28;19908;-78
2022/05/21 03:51:01;;;;;;;;;;;11.90;99.90;;;;;;5076913;28;20429;-75
2022/05/21 03:53:28;;;;;;;;;;;11.90;99.90;;;;;;5076875;28;19916;-75
2022/05/21 03:55:54;;;;;;;;;;;12.10;99.90;;;;;;5076832;28;19908;-76
2022/05/21 03:58:19;;;;;;;;;;;12.20;99.90;;;;;;5076831;28;20054;-76
2022/05/21 04:00:45;;;;;;;;;;;12.20;99.90;;;;;;5076703;28;19909;-75
2022/05/21 04:03:10;;;;;;;;;;;11.90;99.90;;;;;;5076628;28;20003;-76
2022/05/21 04:05:36;;;;;;;;;;;11.90;99.90;;;;;;5076775;28;19991;-75
2022/05/21 04:08:02;;;;;;;;;;;12.00;99.90;;;;;;5076640;28;19912;-77
2022/05/21 04:10:28;;;;;;;;;;;12.00;99.90;;;;;;5058648;28;20284;-75
2022/05/21 04:12:54;;;;;;;;;;;12.10;99.90;;;;;;5076530;28;19915;-75
2022/05/21 04:15:19;;;;;;;;;;;12.20;99.90;;;;;;5076798;28;19935;-77
2022/05/21 04:17:46;;;;;;;;;;;12.10;99.90;;;;;;5058432;28;19994;-78
2022/05/21 04:20:12;;;;;;;;;;;12.10;99.90;;;;;;5076398;28;19954;-76
2022/05/21 04:22:39;;;;;;;;;;;12.00;99.90;;;;;;5076408;28;20361;-75
2022/05/21 04:25:06;;;;;;;;;;;12.00;99.90;;;;;;5075508;28;19912;-76
2022/05/21 04:27:33;;;;;;;;;;;11.90;99.90;;;;;;5076295;28;19908;-77
2022/05/21 04:29:58;;;;;;;;;;;12.00;99.90;;;;;;5076263;28;19909;-76
2022/05/21 04:32:24;;;;;;;;;;;12.00;99.90;;;;;;5076614;28;19916;-75
2022/05/21 04:34:49;;;;;;;;;;;12.00;99.90;;;;;;5076373;28;20388;-76
2022/05/21 04:37:15;;;;;;;;;;;12.00;99.90;;;;;;5075710;28;19970;-75
2022/05/21 04:39:40;;;;;;;;;;;12.00;99.90;;;;;;5076066;28;19909;-76
2022/05/21 04:42:06;;;;;;;;;;;11.90;99.90;;;;;;5058025;28;19908;-76
2022/05/21 04:44:34;;;;;;;;;;;11.70;99.90;;;;;;5075867;28;20395;-76
2022/05/21 04:46:59;;;;;;;;;;;11.80;99.90;;;;;;5075928;28;19916;-75
2022/05/21 04:49:25;;;;;;;;;;;12.00;99.90;;;;;;5075859;28;19913;-76
2022/05/21 04:51:51;;;;;;;;;;;12.20;99.90;;;;;;5075784;28;19916;-76
2022/05/21 04:54:17;;;;;;;;;;;12.20;99.90;;;;;;5076014;28;19915;-75
2022/05/21 04:56:42;;;;;;;;;;;12.20;99.90;;;;;;5057734;28;20323;-76
2022/05/21 04:59:09;;;;;;;;;;;12.20;99.90;;;;;;5075687;28;19958;-76
2022/05/21 05:01:35;;;;;;;;;;;12.30;99.90;;;;;;5075689;28;19909;-75
2022/05/21 05:04:00;;;;;;;;;;;12.40;99.90;;;;;;5075579;28;19936;-74
2022/05/21 05:06:26;;;;;;;;;;;12.30;99.90;;;;;;5075857;28;19909;-76
2022/05/21 05:08:52;;;;;;;;;;;12.40;99.90;;;;;;5075506;28;20342;-74
2022/05/21 05:11:17;;;;;;;;;;;12.40;99.90;;;;;;5075336;28;19908;-75
2022/05/21 05:13:43;;;;;;;;;;;12.30;99.90;;;;;;5057433;28;19909;-76
2022/05/21 05:16:08;;;;;;;;;;;12.30;99.90;;;;;;5075362;28;19990;-74
2022/05/21 05:18:34;;;;;;;;;;;12.40;99.90;;;;;;5075331;28;20399;-75
2022/05/21 05:21:01;;;;;;;;;;;12.60;99.90;;;;;;5075290;28;19913;-76
2022/05/21 05:23:27;;;;;;;;;;;12.70;99.90;;;;;;5075141;28;20007;-75
2022/05/21 05:25:53;;;;;;;;;;;12.60;99.90;;;;;;5075411;28;19995;-76
2022/05/21 05:28:22;;;;;;;;;;;12.80;99.90;;;;;;5075458;28;19916;-76
2022/05/21 05:30:48;;;;;;;;;;;12.80;99.90;;;;;;5075106;28;20287;-74
2022/05/21 05:33:14;;;;;;;;;;;12.90;99.90;;;;;;5075031;28;19909;-76
2022/05/21 05:35:40;;;;;;;;;;;12.80;99.90;;;;;;5074459;28;19970;-75
2022/05/21 05:38:10;;;;;;;;;;;12.90;99.90;;;;;;5074763;28;20011;-76
2022/05/21 05:40:35;;;;;;;;;;;13.10;99.90;;;;;;5075138;28;20281;-75
2022/05/21 05:43:02;;;;;;;;;;;13.30;99.90;;;;;;5074806;28;19914;-77
2022/05/21 05:45:28;;;;;;;;;;;13.40;99.90;;;;;;5056796;28;19908;-77
2022/05/21 05:47:53;;;;;;;;;;;13.70;99.90;;;;;;5074920;28;20250;-76
2022/05/21 05:50:19;;;;;;;;;;;13.70;99.90;;;;;;5074861;28;20018;-75
2022/05/21 05:52:45;;;;;;;;;;;13.70;99.90;;;;;;5074671;28;19912;-75
2022/05/21 05:55:11;;;;;;;;;;;13.60;99.90;;;;;;5074604;28;19912;-76
2022/05/21 05:57:36;;;;;;;;;;;13.60;99.90;;;;;;5074556;28;20369;-75
2022/05/21 06:00:03;;;;;;;;;;;13.70;99.90;;;;;;5074451;28;20391;-76
2022/05/21 06:05:14;;;;;;;;;;;14.00;99.90;;;;;;5074082;28;20032;-74
2022/05/21 06:07:44;;;;;;;;;;;14.00;99.90;;;;;;5074637;28;19986;-75
2022/05/21 06:10:11;;;;;;;;;;;14.10;99.90;;;;;;5074273;28;19909;-77
2022/05/21 06:12:37;;;;;;;;;;;14.20;99.90;;;;;;5074200;28;20000;-76
2022/05/21 06:15:03;;;;;;;;;;;14.30;99.90;;;;;;5074135;28;19919;-75
2022/05/21 06:17:29;;;;;;;;;;;14.30;99.90;;;;;;5074118;28;19908;-75
2022/05/21 06:19:55;;;;;;;;;;;14.50;99.90;;;;;;5074205;28;19942;-74
2022/05/21 06:22:21;;;;;;;;;;;14.80;99.90;;;;;;5056169;28;19908;-76
2022/05/21 06:24:47;;;;;;;;;;;15.00;99.90;;;;;;5073970;28;19913;-76
2022/05/21 06:27:12;;;;;;;;;;;15.00;99.90;;;;;;5056053;28;20399;-75
2022/05/21 06:29:38;;;;;;;;;;;15.00;99.90;;;;;;5056020;28;19943;-75
2022/05/21 06:32:04;;;;;;;;;;;15.10;99.90;;;;;;5074148;28;19913;-77
2022/05/21 06:34:30;;;;;;;;;;;15.10;99.90;;;;;;5073886;28;20285;-78
2022/05/21 06:36:55;;;;;;;;;;;15.40;99.90;;;;;;5073631;28;19920;-74
2022/05/21 06:39:21;;;;;;;;;;;15.60;99.90;;;;;;5074121;28;19966;-77
2022/05/21 06:41:46;;;;;;;;;;;15.70;99.90;;;;;;5073835;28;19908;-76
2022/05/21 06:44:12;;;;;;;;;;;15.70;99.90;;;;;;5055736;28;19916;-76
2022/05/21 06:46:38;;;;;;;;;;;16.10;99.90;;;;;;5073762;28;19999;-75
2022/05/21 06:49:04;;;;;;;;;;;16.20;99.90;;;;;;5073213;28;20292;-77
2022/05/21 06:51:30;;;;;;;;;;;16.20;99.90;;;;;;5073842;28;19916;-78
2022/05/21 06:53:55;;;;;;;;;;;16.40;99.90;;;;;;5073680;28;19908;-77
2022/05/21 06:56:21;;;;;;;;;;;16.50;99.90;;;;;;5073659;28;19912;-75
2022/05/21 06:58:47;;;;;;;;;;;16.60;99.90;;;;;;5073665;28;20008;-76
2022/05/21 07:01:12;;;;;;;;;;;16.50;99.90;;;;;;5073899;28;19913;-74
2022/05/21 07:03:38;;;;;;;;;;;16.60;99.90;;;;;;5073490;28;19919;-76
2022/05/21 07:08:48;;;;;;;;;;;16.90;99.90;;;;;;5073540;28;19999;-74
2022/05/21 07:11:13;;;;;;;;;;;17.10;99.90;;;;;;5073590;28;19991;-75
2022/05/21 07:13:39;;;;;;;;;;;17.10;99.90;;;;;;5073308;28;20425;-76
2022/05/21 07:16:05;;;;;;;;;;;17.50;99.90;;;;;;5073618;28;19908;-75
2022/05/21 07:18:30;;;;;;;;;;;17.80;99.90;;;;;;5073458;28;19915;-76
2022/05/21 07:20:56;;;;;;;;;;;17.80;99.90;;;;;;5073483;28;20280;-75
2022/05/21 07:23:23;;;;;;;;;;;18.60;99.90;;;;;;5073017;28;20446;-76
2022/05/21 07:25:49;;;;;;;;;;;20.70;99.90;;;;;;5055431;28;19974;-76
2022/05/21 07:28:15;;;;;;;;;;;23.10;97.00;;;;;;5073608;28;20376;-77
2022/05/21 07:30:42;;;;;;;;;;;24.60;91.80;;;;;;5073480;28;19987;-77
2022/05/21 07:33:09;;;;;;;;;;;26.00;83.90;;;;;;5073044;28;19970;-75
2022/05/21 07:35:37;;;;;;;;;;;25.80;77.50;;;;;;5073112;28;19917;-75
2022/05/21 07:38:04;;;;;;;;;;;26.60;75.70;;;;;;5073255;28;20458;-75
2022/05/21 07:40:30;;;;;;;;;;;28.00;71.10;;;;;;5073453;28;19988;-76
2022/05/21 07:42:55;;;;;;;;;;;28.60;69.60;;;;;;5073121;28;20003;-76
2022/05/21 07:45:21;;;;;;;;;;;28.70;67.10;;;;;;5073205;28;20378;-76
2022/05/21 07:47:47;;;;;;;;;;;27.60;67.20;;;;;;5073144;28;19935;-75
2022/05/21 07:50:14;;;;;;;;;;;26.20;71.20;;;;;;5054981;28;19959;-76
2022/05/21 07:52:40;;;;;;;;;;;27.50;73.60;;;;;;5073518;28;20311;-76
2022/05/21 07:55:07;;;;;;;;;;;28.30;69.40;;;;;;5073078;28;19999;-76
2022/05/21 07:57:33;;;;;;;;;;;28.60;67.90;;;;;;5073047;28;19912;-77
2022/05/21 07:59:58;;;;;;;;;;;28.30;66.40;;;;;;5074788;28;20375;-77
2022/05/21 08:02:24;;;;;;;;;;;28.00;67.90;;;;;;5076728;28;19915;-76
2022/05/21 08:04:49;;;;;;;;;;;27.80;67.80;;;;;;5076615;28;19963;-77
2022/05/21 08:07:15;;;;;;;;;;;27.80;68.40;;;;;;5076603;28;20323;-76
2022/05/21 08:09:41;;;;;;;;;;;27.80;65.90;;;;;;5076784;28;20478;-77
2022/05/21 08:12:07;;;;;;;;;;;28.00;65.60;;;;;;5076407;28;19915;-78
2022/05/21 08:14:33;;;;;;;;;;;26.80;65.00;;;;;;5076933;28;20424;-75
2022/05/21 08:16:59;;;;;;;;;;;27.10;66.60;;;;;;5076745;28;19913;-76
2022/05/21 08:19:24;;;;;;;;;;;27.40;66.30;;;;;;5076558;28;19912;-76
2022/05/21 08:21:50;;;;;;;;;;;27.60;64.40;;;;;;5076298;28;19999;-77
2022/05/21 08:27:01;;;;;;;;;;;26.60;66.60;;;;;;5056792;28;19928;-76
2022/05/21 08:29:34;;;;;;;;;;;26.50;64.30;;;;;;5056259;28;19931;-76
2022/05/21 08:32:01;;;;;;;;;;;26.30;65.20;;;;;;5056416;28;19908;-77
2022/05/21 08:34:27;;;;;;;;;;;25.80;66.40;;;;;;5056078;28;19909;-75
2022/05/21 08:36:57;;;;;;;;;;;26.60;66.70;;;;;;5056104;28;20381;-77
2022/05/21 08:39:23;;;;;;;;;;;27.50;65.40;;;;;;5056270;28;20388;-77
2022/05/21 08:41:51;;;;;;;;;;;27.60;63.90;;;;;;5056422;28;19909;-77
2022/05/21 08:44:23;;;;;;;;;;;27.10;63.40;;;;;;5056255;28;19921;-78
2022/05/21 08:46:56;;;;;;;;;;;27.50;63.50;;;;;;5056115;28;19909;-77
2022/05/21 08:49:40;;;;;;;;;;;28.10;63.20;;;;;;5056214;28;19961;-76
2022/05/21 08:52:17;;;;;;;;;;;27.70;63.00;;;;;;5055859;28;19909;-75
2022/05/21 08:54:44;;;;;;;;;;;28.80;62.40;;;;;;5055739;28;19916;-75
2022/05/21 08:57:13;;;;;;;;;;;28.50;60.00;;;;;;5055877;28;19987;-77
2022/05/21 08:59:42;;;;;;;;;;;28.40;61.30;;;;;;5054400;28;19943;-77
2022/05/21 09:02:12;;;;;;;;;;;28.20;59.40;;;;;;5054585;28;19909;-74
2022/05/21 09:04:38;;;;;;;;;;;27.60;60.90;;;;;;5056696;28;19913;-76
2022/05/21 09:07:10;;;;;;;;;;;28.80;60.00;;;;;;5075745;28;19909;-76
2022/05/21 09:09:35;;;;;;;;;;;29.60;59.50;;;;;;5075590;28;20244;-77
2022/05/21 09:12:16;;;;;;;;;;;30.10;58.10;;;;;;5075109;28;19915;-76
2022/05/21 09:14:43;;;;;;;;;;;29.70;56.60;;;;;;5057498;28;19908;-77
2022/05/21 09:17:12;;;;;;;;;;;30.40;56.60;;;;;;5075427;28;19916;-76
2022/05/21 09:19:40;;;;;;;;;;;30.60;55.40;;;;;;5075833;28;19908;-76
2022/05/21 09:22:16;;;;;;;;;;;31.00;55.10;;;;;;5057785;28;19909;-77
2022/05/21 09:24:46;;;;;;;;;;;31.20;54.90;;;;;;5055497;28;19921;-77
2022/05/21 09:27:23;;;;;;;;;;;30.70;54.70;;;;;;5075435;28;19912;-76
2022/05/21 09:29:50;;;;;;;;;;;31.10;54.90;;;;;;5075329;28;19958;-78
2022/05/21 09:32:20;;;;;;;;;;;31.60;54.50;;;;;;5074901;28;19943;-76
2022/05/21 09:34:57;;;;;;;;;;;31.00;54.20;;;;;;5074888;28;19917;-78
2022/05/21 09:37:27;;;;;;;;;;;30.50;53.80;;;;;;5074595;28;19974;-77
2022/05/21 09:39:52;;;;;;;;;;;30.50;54.70;;;;;;5074989;28;19916;-76
2022/05/21 09:45:22;;;;;;;;;;;30.20;54.80;;;;;;5074319;28;19920;-75
2022/05/21 09:47:48;;;;;;;;;;;31.30;52.80;;;;;;5056931;28;20386;-76
2022/05/21 09:50:19;;;;;;;;;;;32.10;52.30;;;;;;5074915;28;19973;-76
2022/05/21 09:52:47;;;;;;;;;;;31.70;52.00;;;;;;5074651;28;19958;-76
2022/05/21 09:55:27;;;;;;;;;;;31.70;51.70;;;;;;5074567;28;19919;-75
2022/05/21 09:57:54;;;;;;;;;;;31.90;51.00;;;;;;5074917;28;19950;-75
2022/05/21 10:00:19;;;;;;;;;;;33.00;51.80;;;;;;5074572;28;19915;-75
2022/05/21 10:02:47;;;;;;;;;;;33.90;50.00;;;;;;5074954;28;19909;-75
2022/05/21 10:05:15;;;;;;;;;;;33.70;48.50;;;;;;5074061;28;19916;-76
2022/05/21 10:13:17;;;;;;;;;;;34.30;46.70;;;;;;5054728;28;19935;-76
2022/05/21 10:15:46;;;;;;;;;;;34.00;46.70;;;;;;5054732;28;19913;-76
2022/05/21 10:18:17;;;;;;;;;;;34.50;47.20;;;;;;5054471;28;19909;-75
2022/05/21 10:20:44;;;;;;;;;;;35.00;45.90;;;;;;5054335;28;20397;-75
2022/05/21 10:23:25;;;;;;;;;;;35.90;46.10;;;;;;5054306;28;19919;-76
2022/05/21 10:25:51;;;;;;;;;;;37.10;43.70;;;;;;5054035;28;19909;-74
2022/05/21 10:28:26;;;;;;;;;;;38.30;43.70;;;;;;5054445;28;19924;-77
2022/05/21 10:30:51;;;;;;;;;;;37.60;41.70;;;;;;5053889;28;19909;-76
2022/05/21 10:33:39;;;;;;;;;;;38.40;42.60;;;;;;5054093;28;20362;-76
2022/05/21 10:36:05;;;;;;;;;;;39.80;40.70;;;;;;5053928;28;19959;-76
2022/05/21 10:38:49;;;;;;;;;;;39.90;39.20;;;;;;5053587;28;19909;-75
2022/05/21 10:41:27;;;;;;;;;;;39.70;39.50;;;;;;5053852;28;20326;-75
2022/05/21 10:43:52;;;;;;;;;;;40.50;39.00;;;;;;5053998;28;19913;-76
2022/05/21 10:46:32;;;;;;;;;;;41.50;38.40;;;;;;5052368;28;19915;-76
2022/05/21 10:49:10;;;;;;;;;;;41.20;37.60;;;;;;5054059;28;19916;-75
2022/05/21 10:51:39;;;;;;;;;;;39.10;38.70;;;;;;5044358;28;19909;-75
2022/05/21 10:54:23;;;;;;;;;;;40.20;38.70;;;;;;5053486;28;20003;-78
2022/05/21 10:56:48;;;;;;;;;;;41.40;38.10;;;;;;5052063;28;19962;-79
2022/05/21 10:59:23;;;;;;;;;;;41.90;37.40;;;;;;5053179;28;19909;-77
2022/05/21 11:01:57;;;;;;;;;;;40.00;36.90;;;;;;5052889;28;19959;-78
2022/05/21 11:04:42;;;;;;;;;;;39.00;38.30;;;;;;5053162;28;19913;-79
2022/05/21 11:07:17;;;;;;;;;;;39.40;38.30;;;;;;5053278;28;19909;-79
2022/05/21 11:09:45;;;;;;;;;;;38.90;37.60;;;;;;5052683;28;19912;-78
2022/05/21 11:12:13;;;;;;;;;;;38.60;37.80;;;;;;5037515;28;20377;-77
2022/05/21 11:14:45;;;;;;;;;;;38.90;38.90;;;;;;5042535;28;20424;-78
2022/05/21 11:17:24;;;;;;;;;;;39.20;38.00;;;;;;5051263;28;19912;-78
2022/05/21 11:20:11;;;;;;;;;;;38.80;38.40;;;;;;5051595;28;19909;-77
2022/05/21 11:22:42;;;;;;;;;;;38.70;38.00;;;;;;5051030;28;19909;-78
2022/05/21 11:25:14;;;;;;;;;;;38.80;38.60;;;;;;5052283;28;19919;-77
2022/05/21 11:28:09;;;;;;;;;;;38.60;38.70;;;;;;5053372;28;19909;-79
2022/05/21 11:30:35;;;;;;;;;;;38.80;38.60;;;;;;5052832;28;19913;-78
2022/05/21 11:38:38;;;;;;;;;;;36.70;39.50;;;;;;5056892;28;20004;-78
2022/05/21 11:41:29;;;;;;;;;;;37.20;39.40;;;;;;5056501;28;20333;-76
2022/05/21 11:46:52;;;;;;;;;;;37.50;39.10;;;;;;5046582;28;20399;-76
2022/05/21 11:49:28;;;;;;;;;;;35.60;40.40;;;;;;5055393;28;19915;-78
2022/05/21 11:51:54;;;;;;;;;;;36.30;41.10;;;;;;5056302;28;19909;-77
2022/05/21 11:54:39;;;;;;;;;;;37.00;39.70;;;;;;5056745;28;19909;-79
2022/05/21 11:57:05;;;;;;;;;;;39.10;38.70;;;;;;5056522;28;19909;-77
2022/05/21 11:59:49;;;;;;;;;;;40.90;37.80;;;;;;5055292;28;19909;-77
2022/05/21 12:02:21;;;;;;;;;;;40.70;36.60;;;;;;5043471;28;20296;-79
2022/05/21 12:04:48;;;;;;;;;;;41.40;36.80;;;;;;5056247;28;20438;-79
2022/05/21 12:07:17;;;;;;;;;;;41.80;36.40;;;;;;5056384;28;19916;-78
2022/05/21 12:10:21;;;;;;;;;;;40.70;36.40;;;;;;5056276;28;20361;-77
2022/05/21 12:13:03;;;;;;;;;;;39.70;36.10;;;;;;4973614;28;19917;-78
2022/05/21 12:15:39;;;;;;;;;;;41.00;36.30;;;;;;4966714;28;19965;-77
2022/05/21 12:18:09;;;;;;;;;;;40.00;36.90;;;;;;5027089;28;19909;-77
2022/05/21 12:20:48;;;;;;;;;;;39.70;37.00;;;;;;5056313;28;19909;-78
2022/05/21 12:23:32;;;;;;;;;;;40.30;37.30;;;;;;5055949;28;19992;-78
2022/05/21 12:25:59;;;;;;;;;;;40.10;37.50;;;;;;5054578;28;19917;-77
2022/05/21 12:28:30;;;;;;;;;;;40.60;37.30;;;;;;5056046;28;20301;-79
2022/05/21 12:31:00;;;;;;;;;;;40.50;37.00;;;;;;5055675;28;19909;-79
2022/05/21 12:33:35;;;;;;;;;;;40.20;37.10;;;;;;5055851;28;19948;-78
2022/05/21 12:36:12;;;;;;;;;;;39.30;37.30;;;;;;5055561;28;19955;-77
2022/05/21 12:38:40;;;;;;;;;;;38.20;38.30;;;;;;5055694;28;19941;-79
2022/05/21 12:41:05;;;;;;;;;;;38.20;37.70;;;;;;5055405;28;19915;-77
2022/05/21 12:43:41;;;;;;;;;;;38.10;37.40;;;;;;5055744;28;19912;-79
2022/05/21 12:46:17;;;;;;;;;;;38.60;37.90;;;;;;5054412;28;20402;-76
2022/05/21 12:48:42;;;;;;;;;;;38.00;38.50;;;;;;5055697;28;19916;-78
2022/05/21 12:51:10;;;;;;;;;;;36.80;38.80;;;;;;5055000;28;19909;-77
2022/05/21 12:53:43;;;;;;;;;;;37.40;38.90;;;;;;5055708;28;19945;-78
2022/05/21 12:56:12;;;;;;;;;;;38.00;38.40;;;;;;5055436;28;19909;-79
2022/05/21 12:58:38;;;;;;;;;;;37.70;38.60;;;;;;5054159;28;19955;-77
2022/05/21 13:01:03;;;;;;;;;;;36.70;39.20;;;;;;5055102;28;19960;-77
2022/05/21 13:03:31;;;;;;;;;;;36.50;39.30;;;;;;5055007;28;19920;-78
2022/05/21 13:06:03;;;;;;;;;;;35.90;39.70;;;;;;5055312;28;19909;-78
2022/05/21 13:08:30;;;;;;;;;;;35.40;40.10;;;;;;5055237;28;20333;-78
2022/05/21 13:11:06;;;;;;;;;;;35.90;39.40;;;;;;5053295;28;19932;-79
2022/05/21 13:13:42;;;;;;;;;;;37.10;38.80;;;;;;5046267;28;19916;-78
2022/05/21 13:16:12;;;;;;;;;;;37.50;38.40;;;;;;5055093;28;19905;-79
2022/05/21 13:18:44;;;;;;;;;;;37.20;38.90;;;;;;5053820;28;19916;-76
2022/05/21 13:21:16;;;;;;;;;;;38.30;38.10;;;;;;5053164;28;19920;-77
2022/05/21 13:23:41;;;;;;;;;;;38.30;37.50;;;;;;5054916;28;20370;-79
2022/05/21 13:26:08;;;;;;;;;;;39.20;37.60;;;;;;5054804;28;20002;-77
2022/05/21 13:28:33;;;;;;;;;;;39.30;37.70;;;;;;5054919;28;20304;-77
2022/05/21 13:30:59;;;;;;;;;;;39.80;37.30;;;;;;5054603;28;19909;-77
2022/05/21 13:33:28;;;;;;;;;;;39.40;37.10;;;;;;5054788;28;19909;-76
2022/05/21 13:35:56;;;;;;;;;;;39.70;37.30;;;;;;5054584;28;19964;-78
2022/05/21 13:38:28;;;;;;;;;;;39.60;37.10;;;;;;5054491;28;19909;-76
2022/05/21 13:40:55;;;;;;;;;;;39.30;37.20;;;;;;5054602;28;19951;-79
2022/05/21 13:43:22;;;;;;;;;;;39.90;37.10;;;;;;5053169;28;19912;-78
2022/05/21 13:45:53;;;;;;;;;;;39.60;36.60;;;;;;5054648;28;20320;-76
2022/05/21 13:48:21;;;;;;;;;;;38.20;37.30;;;;;;5054462;28;19916;-78
2022/05/21 13:50:46;;;;;;;;;;;36.80;38.20;;;;;;5053067;28;19915;-79
2022/05/21 13:53:19;;;;;;;;;;;36.90;38.90;;;;;;5053880;28;19909;-78
2022/05/21 13:55:57;;;;;;;;;;;36.80;39.40;;;;;;5054437;28;19944;-77
2022/05/21 13:58:22;;;;;;;;;;;37.50;38.60;;;;;;5053943;28;20340;-78
2022/05/21 14:00:48;;;;;;;;;;;37.50;38.60;;;;;;5054347;28;19959;-79
2022/05/21 14:03:18;;;;;;;;;;;36.70;38.40;;;;;;5072366;28;20331;-78
2022/05/21 14:05:49;;;;;;;;;;;36.20;38.90;;;;;;5074088;28;19916;-76
2022/05/21 14:08:19;;;;;;;;;;;36.00;39.30;;;;;;5074079;28;19908;-78
2022/05/21 14:11:01;;;;;;;;;;;36.40;38.80;;;;;;5074033;28;20330;-79
2022/05/21 14:13:36;;;;;;;;;;;37.70;38.40;;;;;;5074080;28;19909;-79
2022/05/21 14:16:22;;;;;;;;;;;38.50;37.30;;;;;;5074057;28;19908;-78
2022/05/21 14:18:59;;;;;;;;;;;39.00;37.20;;;;;;5072067;28;19959;-78
2022/05/21 14:21:26;;;;;;;;;;;38.60;37.60;;;;;;5073633;28;19909;-77
2022/05/21 14:24:05;;;;;;;;;;;37.80;38.20;;;;;;5073748;28;19919;-79
2022/05/21 14:26:31;;;;;;;;;;;37.90;38.60;;;;;;5073835;28;19909;-77
2022/05/21 14:28:57;;;;;;;;;;;38.50;37.90;;;;;;5073803;28;19915;-77
2022/05/21 14:31:28;;;;;;;;;;;39.10;37.90;;;;;;5073275;28;19912;-79
2022/05/21 14:33:55;;;;;;;;;;;38.40;37.30;;;;;;5073648;28;19920;-78
2022/05/21 14:36:25;;;;;;;;;;;37.30;38.30;;;;;;5073400;28;19920;-78
2022/05/21 14:38:51;;;;;;;;;;;37.40;39.20;;;;;;5073316;28;19908;-78
2022/05/21 14:41:28;;;;;;;;;;;36.90;38.30;;;;;;5072001;28;20003;-77
2022/05/21 14:43:54;;;;;;;;;;;37.50;38.90;;;;;;5053390;28;19920;-77
2022/05/21 14:49:04;;;;;;;;;;;39.40;37.20;;;;;;5053508;28;20107;-78
2022/05/21 14:54:14;;;;;;;;;;;40.00;36.70;;;;;;5053193;28;19916;-77
2022/05/21 14:56:40;;;;;;;;;;;40.20;37.10;;;;;;5053120;28;19908;-79
2022/05/21 14:59:06;;;;;;;;;;;40.90;36.90;;;;;;5053352;28;19916;-76
2022/05/21 15:01:31;;;;;;;;;;;41.30;36.70;;;;;;5052988;28;19917;-78
2022/05/21 15:03:57;;;;;;;;;;;40.50;37.00;;;;;;5053224;28;20266;-75
2022/05/21 15:06:28;;;;;;;;;;;41.20;36.80;;;;;;5053268;28;20002;-78